KDDC/DDC METAR and TAF weather

Enter ICAO airport designator
Station Type Date Time Source
KDDC METAR 2021/07/30 21:52 UTC NOAA

KDDC 302152Z AUTO 19006KT 10SM FEW090 36/16 A3005 RMK AO2 SLP138 T03610156


Station Type Date Time Source
KDDC Decoded METAR 2021/07/30 21:52 UTC NOAA

DODGE CITY REGIONAL AIRPORT, KS, United States (KDDC) 37-46N 99-58W 789M
Jul 30, 2021 - 05:52 PM EDT / 2021.07.30 2152 UTC
Wind: from the S (190 degrees) at 7 MPH (6 KT):0
Visibility: 10 mile(s):0
Sky conditions: mostly clear
Temperature: 97.0 F (36.1 C)
Heat index: 97.0 F (36.1 C):1
Dew Point: 60.1 F (15.6 C)
Relative Humidity: 29%
Pressure (altimeter): 30.05 in. Hg (1017 hPa)
ob: KDDC 302152Z AUTO 19006KT 10SM FEW090 36/16 A3005 RMK AO2 SLP138 T03610156
cycle: 22

Station Type Date Time Source
KDDC TAF 2021/07/30 18:22 UTC NOAA

TAF KDDC 301720Z 3018/3118 18014KT P6SM SKC
FM311000 22010KT P6SM FEW250
FM311400 30013KT P6SM FEW250

Example: see airport list